Time;durP1;ratioP1;P1;durP2;ratioP2;P2;SDS_P1;SDS_P2;PMS_P1;PMS_P2;Temp;Humidity;BMP_temperature;BMP_pressure;BME280_temperature;BME280_humidity;BME280_pressure;Samples;Min_cycle;Max_cycle;Signal;HPM_P1;HPM_P2
2022/05/16 00:01:05;;;;;;;8.25;2.30;;;;;;;18.28;51.01;101356.84;5076250;28;19917;-34
2022/05/16 00:03:31;;;;;;;8.60;2.25;;;;;;;18.17;51.09;101356.00;5075878;28;20036;-35
2022/05/16 00:05:56;;;;;;;6.82;2.50;;;;;;;18.13;51.15;101346.66;5075624;28;20029;-35
2022/05/16 00:08:21;;;;;;;;;;;;;;;18.29;50.92;101350.25;5076465;28;20111;-36
2022/05/16 00:10:47;;;;;;;7.93;2.60;;;;;;;18.10;51.78;101352.66;5075616;28;20007;-35
2022/05/16 00:13:12;;;;;;;6.38;2.38;;;;;;;17.98;51.65;101347.44;5075560;28;20107;-35
2022/05/16 00:15:38;;;;;;;;;;;;;;;18.11;51.66;101354.34;5075934;28;20044;-36
2022/05/16 00:18:05;;;;;;;7.90;2.63;;;;;;;18.00;52.78;101347.97;5075764;28;19943;-35
2022/05/16 00:20:30;;;;;;;8.95;2.65;;;;;;;17.91;52.31;101346.88;5075369;28;20759;-36
2022/05/16 00:22:56;;;;;;;9.93;2.70;;;;;;;17.87;52.53;101345.78;5075039;28;20032;-35
2022/05/16 00:25:21;;;;;;;;;;;;;;;18.01;51.95;101349.66;5075767;28;20040;-36
2022/05/16 00:27:47;;;;;;;7.23;2.33;;;;;;;17.76;53.15;101324.91;5075180;28;19955;-35
2022/05/16 00:30:14;;;;;;;;;;;;;;;17.93;52.06;101343.88;5075559;28;20345;-35
2022/05/16 00:32:40;;;;;;;5.95;2.80;;;;;;;17.78;53.06;101335.59;5074859;28;20004;-35
2022/05/16 00:35:06;;;;;;;;;;;;;;;17.86;52.37;101329.59;5075542;28;20087;-35
2022/05/16 00:37:32;;;;;;;7.57;2.37;;;;;;;17.75;53.66;101328.75;5075255;28;20272;-35
2022/05/16 00:39:57;;;;;;;;;;;;;;;17.87;52.72;101320.31;5075485;28;20029;-35
2022/05/16 00:42:22;;;;;;;8.07;2.95;;;;;;;17.80;53.10;101327.94;5075183;28;19916;-36
2022/05/16 00:44:47;;;;;;;;;;;;;;;17.86;53.09;101327.72;5075356;28;20032;-35
2022/05/16 00:47:13;;;;;;;7.50;2.53;;;;;;;17.73;53.54;101323.53;5074007;28;20032;-35
2022/05/16 00:49:43;;;;;;;;;;;;;;;17.78;52.81;101327.41;5075460;28;20385;-35
2022/05/16 00:52:16;;;;;;;8.30;2.78;;;;;;;17.64;53.62;101314.19;5075371;28;19912;-35
2022/05/16 00:54:56;;;;;;;6.40;2.72;;;;;;;17.62;52.95;101327.31;5074825;28;20033;-35
2022/05/16 00:57:31;;;;;;;5.40;2.28;;;;;;;17.57;54.60;101316.34;5074663;28;20024;-35
2022/05/16 01:00:03;;;;;;;8.77;2.80;;;;;;;17.57;54.08;101321.81;5075348;28;20405;-35
2022/05/16 01:05:16;;;;;;;8.00;2.78;;;;;;;17.56;54.10;101313.84;5074520;28;20128;-35
2022/05/16 01:07:43;;;;;;;;;;;;;;;17.70;53.50;101317.75;5075227;28;20091;-36
2022/05/16 01:10:11;;;;;;;6.55;2.78;;;;;;;17.53;54.31;101314.41;5074405;28;20002;-35
2022/05/16 01:12:40;;;;;;;7.25;2.72;;;;;;;17.47;54.77;101314.38;5074580;28;20381;-35
2022/05/16 01:15:12;;;;;;;7.35;2.95;;;;;;;17.51;55.18;101306.44;5073633;28;20465;-35
2022/05/16 01:17:38;;;;;;;8.25;3.08;;;;;;;17.47;54.30;101306.19;5074026;28;20032;-35
2022/05/16 01:20:04;;;;;;;;;;;;;;;17.61;53.56;101311.97;5074821;28;20020;-35
2022/05/16 01:22:35;;;;;;;7.07;3.30;;;;;;;17.42;54.52;101300.69;5074149;28;19916;-35
2022/05/16 01:25:28;;;;;;;5.50;2.83;;;;;;;17.47;54.78;101308.06;5074044;28;20367;-35
2022/05/16 01:27:56;;;;;;;8.05;3.00;;;;;;;17.40;55.09;101310.22;5071502;28;20048;-35
2022/05/16 01:30:29;;;;;;;6.75;2.90;;;;;;;17.33;55.60;101315.13;5074006;28;20059;-35
2022/05/16 01:32:54;;;;;;;8.32;3.20;;;;;;;17.32;55.81;101308.81;5073940;28;20115;-35
2022/05/16 01:35:21;;;;;;;;;;;;;;;17.44;54.60;101309.44;5073947;28;20025;-35
2022/05/16 01:38:30;;;;;;;7.22;2.58;;;;;;;17.33;56.13;101309.66;5073857;28;19919;-35
2022/05/16 01:40:36;;;;;;;8.48;2.55;;;;;;;17.22;55.77;101303.28;5068057;28;20085;-35
2022/05/16 01:43:02;;;;;;;6.75;2.83;;;;;;;17.13;55.79;101305.72;5074061;28;20043;-35
2022/05/16 01:45:27;;;;;;;;;;;;;;;17.32;54.50;101302.50;5074107;28;20024;-36
2022/05/16 01:47:53;;;;;;;7.53;2.80;;;;;;;17.10;56.32;101278.91;5073376;28;20054;-35
2022/05/16 01:50:18;;;;;;;;;;;;;;;17.30;55.44;101294.59;5074100;28;20106;-35
2022/05/16 01:52:44;;;;;;;6.93;2.90;;;;;;;17.14;56.40;101288.22;5073273;28;19958;-35
2022/05/16 01:55:11;;;;;;;;;;;;;;;17.20;56.16;101294.53;5073936;28;20074;-35
2022/05/16 01:57:36;;;;;;;;;;;;;;;17.15;55.44;101300.78;5073852;28;20007;-35
2022/05/16 02:00:04;;;;;;;5.68;2.60;;;;;;;17.02;57.24;101289.50;5072437;28;20002;-36
2022/05/16 02:02:29;;;;;;;7.55;2.67;;;;;;;16.96;57.51;101285.91;5073289;28;20540;-35
2022/05/16 02:04:54;;;;;;;;;;;;;;;17.09;55.97;101287.38;5073818;28;20056;-35
2022/05/16 02:07:19;;;;;;;6.37;2.43;;;;;;;16.88;57.47;101283.66;5072966;28;19912;-35
2022/05/16 02:09:45;;;;;;;;;;;;;;;17.02;56.52;101278.56;5073966;28;20504;-35
2022/05/16 02:12:11;;;;;;;9.05;4.00;;;;;;;16.81;57.64;101281.16;5073231;28;19912;-35
2022/05/16 02:14:36;;;;;;;;;;;;;;;16.92;56.43;101277.41;5074125;28;20075;-35
2022/05/16 02:17:02;;;;;;;7.63;2.75;;;;;;;16.75;58.35;101281.41;5073780;28;20364;-35
2022/05/16 02:19:27;;;;;;;;;;;;;;;16.93;56.57;101286.41;5073199;28;20054;-35
2022/05/16 02:24:40;;;;;;;8.32;2.80;;;;;;;16.80;58.66;101275.97;5073265;28;20070;-35
2022/05/16 02:27:06;;;;;;;7.05;2.90;;;;;;;16.78;59.55;101268.00;5073013;28;20078;-35
2022/05/16 02:29:34;;;;;;;7.43;3.17;;;;;;;16.74;58.49;101269.66;5073150;28;20033;-35
2022/05/16 02:32:00;;;;;;;7.85;2.85;;;;;;;16.62;59.23;101264.31;5073473;28;20032;-35
2022/05/16 02:34:25;;;;;;;;;;;;;;;16.80;56.88;101265.88;5073185;28;20081;-35
2022/05/16 02:36:52;;;;;;;7.80;3.03;;;;;;;16.61;59.36;101262.69;5073411;28;19919;-35
2022/05/16 02:39:18;;;;;;;9.88;3.05;;;;;;;16.56;59.65;101245.44;5072534;28;20833;-35
2022/05/16 02:41:43;;;;;;;;;;;;;;;16.77;57.09;101251.91;5073527;28;20056;-35
2022/05/16 02:44:09;;;;;;;4.47;2.40;;;;;;;16.67;59.13;101260.81;5072974;28;19923;-35
2022/05/16 02:46:34;;;;;;;;;;;;;;;16.79;57.18;101250.56;5073128;28;20155;-36
2022/05/16 02:49:00;;;;;;;6.85;2.85;;;;;;;16.61;59.14;101250.94;5073039;28;19912;-35
2022/05/16 02:51:25;;;;;;;;;;;;;;;16.73;58.15;101252.41;5073999;28;20423;-35
2022/05/16 02:53:51;;;;;;;10.02;3.10;;;;;;;16.56;59.21;101246.25;5072562;28;19912;-35
2022/05/16 02:56:16;;;;;;;8.15;3.10;;;;;;;16.54;59.29;101247.59;5072625;28;20123;-35
2022/05/16 02:58:43;;;;;;;;;;;;;;;16.65;57.47;101232.97;5088249;28;20158;-35
2022/05/16 03:01:10;;;;;;;6.25;2.65;;;;;;;16.50;59.89;101235.56;5073445;28;19912;-35
2022/05/16 03:03:35;;;;;;;5.90;2.97;;;;;;;16.31;60.03;101213.31;5073154;28;20392;-35
2022/05/16 03:06:01;;;;;;;;;;;;;;;16.60;58.03;101222.81;5073012;28;20028;-35
2022/05/16 03:08:26;;;;;;;5.77;2.47;;;;;;;16.46;60.42;101230.63;5072822;28;19908;-35
2022/05/16 03:10:51;;;;;;;;;;;;;;;16.59;58.00;101228.53;5076391;28;20410;-36
2022/05/16 03:13:17;;;;;;;4.80;2.27;;;;;;;16.40;60.89;101226.22;5076274;28;19916;-36
2022/05/16 03:15:42;;;;;;;;;;;;;;;16.53;59.78;101211.28;5077116;28;20059;-36
2022/05/16 03:18:07;;;;;;;6.53;2.90;;;;;;;16.33;61.20;101203.75;5077290;28;19912;-36
2022/05/16 03:20:32;;;;;;;;;;;;;;;16.49;58.65;101223.81;5077180;28;20058;-36
2022/05/16 03:22:58;;;;;;;5.63;2.80;;;;;;;16.30;60.90;101208.91;5076225;28;19920;-36
2022/05/16 03:25:23;;;;;;;7.53;3.33;;;;;;;16.21;61.23;101206.69;5077213;28;20353;-36
2022/05/16 03:27:49;;;;;;;;;;;;;;;16.43;59.18;101225.69;5076560;28;20028;-36
2022/05/16 03:30:14;;;;;;;5.60;2.72;;;;;;;16.33;61.49;101222.88;5076851;28;19923;-36
2022/05/16 03:32:40;;;;;;;;;;;;;;;16.45;59.27;101228.16;5075333;28;20121;-36
2022/05/16 03:35:07;;;;;;;7.53;3.38;;;;;;;16.19;62.09;101216.19;5076425;28;19913;-36
2022/05/16 03:37:32;;;;;;;8.13;3.60;;;;;;;16.10;62.68;101221.28;5076217;28;20066;-36
2022/05/16 03:42:42;;;;;;;7.43;3.80;;;;;;;16.13;62.52;101209.06;5075942;28;19931;-36
2022/05/16 03:45:07;;;;;;;;;;;;;;;16.29;60.92;101221.72;5076405;28;20037;-36
2022/05/16 03:47:32;;;;;;;6.30;3.42;;;;;;;16.15;62.28;101231.44;5075763;28;19912;-36
2022/05/16 03:49:58;;;;;;;;;;;;;;;16.25;60.70;101228.81;5076534;28;20400;-36
2022/05/16 03:52:23;;;;;;;5.13;2.88;;;;;;;16.09;62.83;101227.84;5076238;28;19915;-36
2022/05/16 03:54:48;;;;;;;8.27;3.33;;;;;;;16.13;62.86;101231.69;5075696;28;20169;-36
2022/05/16 03:57:14;;;;;;;;;;;;;;;16.27;60.49;101223.91;5076933;28;20032;-36
2022/05/16 03:59:39;;;;;;;7.50;3.07;;;;;;;16.09;63.07;101222.38;5075739;28;19908;-36
2022/05/16 04:02:05;;;;;;;9.77;3.33;;;;;;;16.16;63.45;101227.63;5076274;28;20263;-36
2022/05/16 04:04:31;;;;;;;6.38;2.85;;;;;;;16.15;63.21;101229.56;5075564;28;20343;-36
2022/05/16 04:06:56;;;;;;;;;;;;;;;16.25;61.39;101223.38;5076159;28;20044;-36
2022/05/16 04:09:22;;;;;;;9.53;3.50;;;;;;;16.15;62.70;101228.69;5075609;28;20003;-36
2022/05/16 04:11:47;;;;;;;;;;;;;;;16.25;61.13;101214.31;5076319;28;20024;-36
2022/05/16 04:14:13;;;;;;;9.20;3.05;;;;;;;16.00;63.18;101209.47;5075254;28;20375;-36
2022/05/16 04:16:38;;;;;;;5.32;2.53;;;;;;;16.08;63.02;101214.47;5076000;28;20144;-36
2022/05/16 04:19:07;;;;;;;;;;;;;;;16.21;61.28;101223.06;5075603;28;20513;-36
2022/05/16 04:21:33;;;;;;;6.85;3.22;;;;;;;15.96;63.77;101199.09;5076005;28;19963;-36
2022/05/16 04:23:58;;;;;;;;;;;;;;;16.17;62.25;101219.19;5076286;28;20032;-36
2022/05/16 04:26:24;;;;;;;6.13;2.90;;;;;;;16.14;62.74;101232.50;5075509;28;19912;-36
2022/05/16 04:28:49;;;;;;;;;;;;;;;16.25;61.54;101234.28;5075460;28;20025;-36
2022/05/16 04:31:14;;;;;;;5.70;3.15;;;;;;;16.20;63.12;101228.75;5075546;28;19923;-36
2022/05/16 04:33:40;;;;;;;;;;;;;;;16.35;60.90;101228.91;5076337;28;20484;-36
2022/05/16 04:36:05;;;;;;;7.13;3.25;;;;;;;16.34;62.85;101229.16;5075906;28;19916;-35
2022/05/16 04:38:31;;;;;;;;;;;;;;;16.46;61.05;101230.63;5075433;28;20109;-35
2022/05/16 04:43:41;;;;;;;7.13;2.88;;;;;;;16.45;63.03;101231.72;5075535;28;20499;-36
2022/05/16 04:46:06;;;;;;;;;;;;;;;16.60;61.37;101236.47;5075600;28;20099;-36
2022/05/16 04:48:33;;;;;;;6.28;3.30;;;;;;;16.47;63.23;101237.72;5075058;28;20353;-36
2022/05/16 04:50:58;;;;;;;7.05;2.95;;;;;;;16.49;63.82;101240.19;5074847;28;20120;-36
2022/05/16 04:53:24;;;;;;;;;;;;;;;16.72;61.33;101236.31;5075101;28;20035;-36
2022/05/16 04:55:49;;;;;;;5.45;3.08;;;;;;;16.72;62.14;101248.03;5075502;28;19916;-35
2022/05/16 04:58:15;;;;;;;;;;;;;;;16.87;60.97;101247.31;5075848;28;20037;-35
2022/05/16 05:00:40;;;;;;;11.27;3.57;;;;;;;16.70;62.12;101236.53;5075149;28;20023;-36
2022/05/16 05:03:05;;;;;;;;;;;;;;;16.88;60.87;101248.97;5074971;28;20498;-35
2022/05/16 05:05:31;;;;;;;7.50;3.43;;;;;;;16.68;62.61;101227.78;5074637;28;19912;-35
2022/05/16 05:07:56;;;;;;;6.43;3.38;;;;;;;16.85;63.05;101243.22;5074565;28;20275;-35
2022/05/16 05:16:07;;;;;;;6.22;3.17;;;;;;;17.04;62.60;101243.63;5074244;28;20059;-35
2022/05/16 05:18:33;;;;;;;9.35;3.90;;;;;;;17.10;62.99;101239.81;5074792;28;20058;-35
2022/05/16 05:20:58;;;;;;;;;;;;;;;17.31;61.83;101240.75;5074309;28;20087;-35
2022/05/16 05:23:24;;;;;;;5.82;3.55;;;;;;;17.37;61.68;101220.53;5074011;28;19913;-35
2022/05/16 05:25:49;;;;;;;;;;;;;;;17.68;60.80;101229.69;5074339;28;20024;-35
2022/05/16 05:28:14;;;;;;;8.30;3.87;;;;;;;17.70;60.39;101238.44;5074022;28;19920;-36
2022/05/16 05:30:39;;;;;;;;;;;;;;;17.96;60.01;101244.84;5074810;28;20270;-36
2022/05/16 05:33:05;;;;;;;12.53;3.83;;;;;;;18.04;59.27;101238.00;5073105;28;19913;-36
2022/05/16 05:35:30;;;;;;;;;;;;;;;18.19;59.18;101240.75;5074798;28;20739;-36
2022/05/16 05:37:56;;;;;;;7.50;3.72;;;;;;;18.10;59.56;101237.72;5072537;28;19913;-36
2022/05/16 05:40:22;;;;;;;;;;;;;;;18.21;59.51;101233.94;5074561;28;20065;-36
2022/05/16 05:42:49;;;;;;;9.70;3.83;;;;;;;18.13;60.00;101236.38;5073510;28;19919;-36
2022/05/16 05:45:15;;;;;;;6.57;3.53;;;;;;;18.10;60.79;101235.00;5073744;28;20067;-35
2022/05/16 05:47:40;;;;;;;;;;;;;;;18.22;59.60;101235.56;5074467;28;20029;-35
2022/05/16 05:50:07;;;;;;;10.73;4.00;;;;;;;18.12;59.78;101232.00;5073551;28;19913;-35
2022/05/16 05:52:33;;;;;;;12.27;4.32;;;;;;;18.20;60.77;101253.34;5073303;28;20032;-35
2022/05/16 05:54:59;;;;;;;6.18;4.07;;;;;;;18.22;60.69;101252.00;5073396;28;20036;-35
2022/05/16 05:57:25;;;;;;;8.02;3.35;;;;;;;18.33;59.99;101254.72;5073775;28;20029;-35
2022/05/16 05:59:52;;;;;;;12.50;4.10;;;;;;;18.37;60.78;101264.06;5073439;28;20032;-35
2022/05/16 06:02:18;;;;;;;8.38;3.65;;;;;;;18.31;60.95;101265.97;5073157;28;20497;-35
2022/05/16 06:04:45;;;;;;;12.30;3.90;;;;;;;18.28;60.87;101264.56;5073382;28;20109;-35
2022/05/16 06:07:10;;;;;;;4.90;3.13;;;;;;;18.32;61.05;101262.13;5073695;28;20032;-35
2022/05/16 06:09:36;;;;;;;6.22;3.10;;;;;;;18.34;61.33;101264.59;5073095;28;20102;-35
2022/05/16 06:12:03;;;;;;;;;;;;;;;18.46;60.21;101263.22;5074143;28;20072;-35
2022/05/16 06:14:29;;;;;;;8.88;3.58;;;;;;;18.38;60.25;101271.16;5073112;28;19912;-35
2022/05/16 06:16:54;;;;;;;;;;;;;;;18.47;59.56;101269.53;5074038;28;20051;-35
2022/05/16 06:19:20;;;;;;;11.15;3.20;;;;;;;18.41;60.73;101265.16;5073841;28;19968;-35
2022/05/16 06:21:47;;;;;;;10.52;3.10;;;;;;;18.50;59.70;101274.47;5073823;28;20025;-35
2022/05/16 06:26:58;;;;;;;11.65;3.20;;;;;;;18.66;59.74;101281.56;5073102;28;20051;-35
2022/05/16 06:29:25;;;;;;;9.20;3.10;;;;;;;18.68;59.33;101286.78;5073077;28;20032;-35
2022/05/16 06:31:50;;;;;;;5.40;2.97;;;;;;;18.69;58.97;101286.56;5072971;28;20055;-35
2022/05/16 06:34:16;;;;;;;6.90;2.97;;;;;;;18.65;59.06;101274.47;5072818;28;20056;-36
2022/05/16 06:36:41;;;;;;;;;;;;;;;18.80;58.88;101283.81;5073621;28;20032;-36
2022/05/16 06:39:06;;;;;;;7.40;3.37;;;;;;;18.80;59.36;101281.06;5072624;28;20021;-36
2022/05/16 06:41:32;;;;;;;8.30;3.42;;;;;;;18.89;59.71;101279.41;5072945;28;20028;-36
2022/05/16 06:43:57;;;;;;;;;;;;;;;19.10;58.97;101286.50;5070892;28;20123;-36
2022/05/16 06:46:22;;;;;;;6.80;2.90;;;;;;;19.25;58.66;101286.44;5055918;28;19916;-37
2022/05/16 06:48:47;;;;;;;8.40;3.08;;;;;;;19.47;58.05;101296.25;5053258;28;20029;-35
2022/05/16 06:51:13;;;;;;;7.03;3.10;;;;;;;19.59;57.40;101280.31;5052730;28;20048;-36
2022/05/16 06:53:38;;;;;;;6.13;3.10;;;;;;;19.83;57.48;101283.25;5052651;28;20404;-36
2022/05/16 06:56:04;;;;;;;7.40;2.80;;;;;;;19.92;57.23;101291.72;5053078;28;20462;-36
2022/05/16 06:58:29;;;;;;;;;;;;;;;20.01;57.30;101303.75;5053078;28;20385;-36
2022/05/16 07:00:56;;;;;;;7.88;2.42;;;;;;;19.95;57.76;101297.44;5052928;28;19909;-36
2022/05/16 07:03:21;;;;;;;7.00;2.83;;;;;;;20.00;58.48;101288.34;5052810;28;20029;-35
2022/05/16 07:05:48;;;;;;;7.43;2.75;;;;;;;19.98;57.86;101296.06;5052567;28;20040;-35
2022/05/16 07:08:15;;;;;;;6.70;2.60;;;;;;;20.03;57.62;101302.34;5052182;28;20053;-36
2022/05/16 07:10:41;;;;;;;9.75;2.47;;;;;;;19.97;58.14;101291.69;5053032;28;20040;-36
2022/05/16 07:13:08;;;;;;;6.22;2.47;;;;;;;20.02;58.06;101297.16;5052726;28;20021;-36
2022/05/16 07:15:33;;;;;;;7.15;2.72;;;;;;;20.03;57.97;101312.50;5052517;28;20057;-35
2022/05/16 07:17:59;;;;;;;7.03;2.80;;;;;;;20.04;57.91;101314.97;5053111;28;20059;-35
2022/05/16 07:20:25;;;;;;;7.90;2.53;;;;;;;20.10;58.19;101312.19;5052634;28;20139;-35
2022/05/16 07:22:50;;;;;;;10.52;2.40;;;;;;;20.02;58.16;101303.47;5052037;28;20116;-35
2022/05/16 07:25:22;;;;;;;6.88;2.58;;;;;;;20.15;57.75;101331.38;5052852;28;20063;-36
2022/05/16 07:27:56;;;;;;;10.18;2.85;;;;;;;20.17;58.14;101316.28;5052878;28;20326;-35
2022/05/16 07:30:25;;;;;;;9.23;2.75;;;;;;;20.21;57.34;101325.59;5052337;28;20033;-36
2022/05/16 07:32:51;;;;;;;6.65;2.40;;;;;;;20.16;57.78;101311.88;5052543;28;20587;-35
2022/05/16 07:35:19;;;;;;;9.77;2.78;;;;;;;20.16;58.48;101317.38;5052429;28;20040;-35
2022/05/16 07:37:45;;;;;;;7.95;2.50;;;;;;;20.20;58.28;101309.38;5052328;28;20116;-35
2022/05/16 07:40:12;;;;;;;8.25;2.47;;;;;;;20.17;58.87;101307.22;5052477;28;20096;-36
2022/05/16 07:42:38;;;;;;;7.00;2.38;;;;;;;20.24;58.64;101319.50;5052575;28;20028;-36
2022/05/16 07:45:06;;;;;;;5.43;2.28;;;;;;;20.26;59.23;101314.56;5052179;28;20063;-35
2022/05/16 07:47:32;;;;;;;8.38;2.55;;;;;;;20.29;57.99;101315.91;5052480;28;20033;-35
2022/05/16 07:49:59;;;;;;;5.55;2.40;;;;;;;20.39;58.05;101317.78;5052193;28;20040;-36
2022/05/16 07:52:25;;;;;;;8.50;2.00;;;;;;;20.43;58.09;101324.34;5052448;28;20115;-36
2022/05/16 07:54:51;;;;;;;10.05;2.60;;;;;;;20.53;58.34;101327.03;5051651;28;20021;-35
2022/05/16 07:57:16;;;;;;;7.55;2.20;;;;;;;20.59;58.27;101323.16;5055838;28;20090;-35
2022/05/16 07:59:42;;;;;;;5.05;2.25;;;;;;;20.60;57.41;101313.81;5055244;28;20479;-36
2022/05/16 08:02:08;;;;;;;11.15;2.22;;;;;;;20.71;57.95;101328.28;5056139;28;20029;-35
2022/05/16 08:04:33;;;;;;;8.70;2.70;;;;;;;20.78;57.75;101331.50;5055546;28;20032;-35
2022/05/16 08:06:58;;;;;;;6.78;2.20;;;;;;;20.83;57.54;101325.97;5056077;28;20029;-35
2022/05/16 08:12:09;;;;;;;8.38;2.80;;;;;;;20.89;57.52;101326.78;5056090;28;20098;-36
2022/05/16 08:14:35;;;;;;;6.35;2.40;;;;;;;20.94;57.48;101333.03;5055599;28;20021;-35
2022/05/16 08:17:00;;;;;;;9.63;2.38;;;;;;;20.96;57.48;101336.31;5056024;28;20052;-35
2022/05/16 08:19:27;;;;;;;5.30;2.30;;;;;;;21.00;58.37;101339.31;5055353;28;20589;-35
2022/05/16 08:21:52;;;;;;;9.45;2.20;;;;;;;21.09;58.13;101329.34;5056064;28;20071;-36
2022/05/16 08:24:18;;;;;;;7.93;2.70;;;;;;;21.35;57.74;101329.91;5055746;28;20416;-35
2022/05/16 08:26:43;;;;;;;4.93;1.90;;;;;;;21.64;57.13;101343.63;5056051;28;20025;-36
2022/05/16 08:29:08;;;;;;;5.85;2.45;;;;;;;21.82;57.66;101339.28;5055497;28;20040;-36
2022/05/16 08:31:35;;;;;;;5.80;2.00;;;;;;;21.90;56.80;101332.28;5055222;28;20032;-35
2022/05/16 08:34:01;;;;;;;5.90;1.80;;;;;;;21.98;56.53;101337.16;5055629;28;20029;-35
2022/05/16 08:42:03;;;;;;;4.43;1.83;;;;;;;22.41;56.16;101343.47;5055104;28;20047;-36
2022/05/16 08:44:38;;;;;;;9.18;1.67;;;;;;;22.56;55.68;101345.16;5055294;28;20024;-36
2022/05/16 08:47:19;;;;;;;5.05;1.80;;;;;;;22.81;55.11;101342.00;5066799;28;20036;-36
2022/05/16 08:49:52;;;;;;;3.67;1.40;;;;;;;23.06;54.54;101342.69;5035756;28;20409;-36
2022/05/16 08:52:28;;;;;;;4.50;2.03;;;;;;;23.22;54.32;101341.28;5049791;28;20025;-36
2022/05/16 08:55:06;;;;;;;6.47;1.58;;;;;;;23.45;53.89;101328.44;5054834;28;20060;-36
2022/05/16 08:57:35;;;;;;;5.57;1.92;;;;;;;23.72;53.26;101337.88;5056454;28;20087;-36
2022/05/16 09:00:25;;;;;;;5.57;1.70;;;;;;;23.92;53.24;101328.38;5054920;28;20028;-36
2022/05/16 09:02:52;;;;;;;4.38;1.48;;;;;;;24.15;51.09;101330.03;5054827;28;20458;-36
2022/05/16 09:05:21;;;;;;;4.47;1.42;;;;;;;24.28;50.43;101337.47;5054886;28;20110;-36
2022/05/16 09:07:50;;;;;;;3.80;1.60;;;;;;;24.39;50.65;101332.56;5053626;28;20443;-36
2022/05/16 09:10:25;;;;;;;6.60;1.80;;;;;;;24.57;50.16;101334.34;5054805;28;20029;-36
2022/05/16 09:13:13;;;;;;;4.00;1.55;;;;;;;24.73;50.08;101332.00;5055019;28;20025;-36
2022/05/16 09:15:46;;;;;;;4.63;1.20;;;;;;;24.93;48.24;101314.91;5054886;28;20374;-36
2022/05/16 09:18:29;;;;;;;5.70;1.60;;;;;;;25.17;47.61;101328.41;5055609;28;20420;-36
2022/05/16 09:20:59;;;;;;;5.85;1.67;;;;;;;25.37;46.48;101326.22;5055594;28;20024;-36
2022/05/16 09:23:34;;;;;;;5.85;1.33;;;;;;;25.50;46.28;101319.75;5054929;28;20025;-36
2022/05/16 09:26:36;;;;;;;5.68;1.58;;;;;;;25.68;47.02;101315.09;5054457;28;20474;-36
2022/05/16 09:29:12;;;;;;;2.17;1.17;;;;;;;25.86;45.41;101316.78;5054300;28;20035;-36
2022/05/16 09:31:42;;;;;;;4.72;1.30;;;;;;;25.87;45.09;101321.22;5055181;28;20028;-36
2022/05/16 09:34:09;;;;;;;6.30;1.33;;;;;;;25.81;44.37;101305.84;5054369;28;20029;-36
2022/05/16 09:36:40;;;;;;;3.08;1.10;;;;;;;25.96;43.98;101314.84;5054443;28;20115;-36
2022/05/16 09:39:07;;;;;;;3.25;1.50;;;;;;;26.18;43.73;101323.03;5053536;28;20485;-37
2022/05/16 09:41:58;;;;;;;3.33;1.50;;;;;;;26.35;44.91;101325.00;5053676;28;20029;-36
2022/05/16 09:44:57;;;;;;;6.80;1.40;;;;;;;26.50;44.16;101320.94;5053933;28;20057;-36
2022/05/16 09:47:29;;;;;;;5.82;1.55;;;;;;;26.51;43.08;101328.16;5031979;28;20398;-36
2022/05/16 09:50:14;;;;;;;3.85;1.50;;;;;;;26.54;44.13;101336.59;5031626;28;20123;-36
2022/05/16 09:53:13;;;;;;;7.00;2.00;;;;;;;26.50;43.76;101348.66;5032043;28;20049;-36
2022/05/16 09:55:41;;;;;;;3.20;1.60;;;;;;;26.76;44.19;101355.03;4953250;29;20046;-37
2022/05/16 09:58:22;;;;;;;3.83;1.55;;;;;;;26.81;44.04;101346.53;4953525;29;20054;-37
2022/05/16 10:01:03;;;;;;;3.78;1.60;;;;;;;27.04;44.07;101365.78;4953331;29;20058;-36
2022/05/16 10:03:36;;;;;;;3.03;1.70;;;;;;;27.17;43.51;101365.59;4953427;29;20035;-37
2022/05/16 10:06:31;;;;;;;3.28;1.40;;;;;;;27.49;43.08;101370.88;4953279;29;20535;-36
2022/05/16 10:09:06;;;;;;;5.72;1.70;;;;;;;27.33;42.98;101377.00;4944698;29;20098;-36
2022/05/16 10:11:32;;;;;;;4.47;1.63;;;;;;;27.15;42.81;101380.97;4953058;29;20472;-36
2022/05/16 10:13:58;;;;;;;4.78;1.42;;;;;;;27.03;43.35;101376.03;4953201;29;20028;-36
2022/05/16 10:16:28;;;;;;;4.90;2.03;;;;;;;26.82;43.42;101384.22;4936988;29;20050;-36
2022/05/16 10:19:03;;;;;;;4.20;1.50;;;;;;;26.77;43.99;101378.84;4953317;28;20047;-36
2022/05/16 10:21:35;;;;;;;5.83;1.70;;;;;;;26.59;43.98;101385.53;4953541;29;20035;-36
2022/05/16 10:24:02;;;;;;;5.35;1.70;;;;;;;26.37;44.54;101387.31;4960911;28;20043;-36
2022/05/16 10:26:33;;;;;;;5.13;1.85;;;;;;;26.21;45.61;101388.94;4972409;28;20050;-36
2022/05/16 10:29:02;;;;;;;8.85;1.90;;;;;;;26.01;45.84;101389.50;4972424;28;20035;-36
2022/05/16 10:34:33;;;;;;;2.90;1.70;;;;;;;25.60;47.20;101405.31;5053440;28;20174;-36
2022/05/16 10:36:59;;;;;;;6.55;1.88;;;;;;;25.39;49.54;101418.91;5053159;28;20028;-36
2022/05/16 10:39:28;;;;;;;10.35;2.42;;;;;;;25.07;51.72;101422.75;5053040;28;20021;-36
2022/05/16 10:42:15;;;;;;;6.93;1.95;;;;;;;24.89;53.07;101434.81;5053039;28;20028;-36
2022/05/16 10:44:59;;;;;;;7.03;2.20;;;;;;;24.65;52.82;101435.91;5052914;28;20071;-36
2022/05/16 10:47:45;;;;;;;7.72;2.40;;;;;;;24.43;53.11;101460.72;5053025;28;20025;-36
2022/05/16 10:50:16;;;;;;;5.28;1.77;;;;;;;24.21;54.43;101461.44;5052323;28;20429;-36
2022/05/16 10:52:47;;;;;;;6.97;2.20;;;;;;;24.08;55.12;101468.59;5053154;28;20029;-36
2022/05/16 10:55:13;;;;;;;8.85;2.63;;;;;;;24.07;55.64;101477.22;5053240;28;20102;-36
2022/05/16 10:57:57;;;;;;;7.40;2.25;;;;;;;24.10;55.35;101476.56;5053689;28;20029;-36
2022/05/16 11:00:49;;;;;;;5.13;2.50;;;;;;;24.04;56.19;101469.53;5053017;28;20033;-36
2022/05/16 11:03:43;;;;;;;5.93;2.15;;;;;;;24.46;54.93;101478.66;5010907;28;20053;-36
2022/05/16 11:06:33;;;;;;;3.42;2.13;;;;;;;24.57;53.97;101471.78;5010689;28;20053;-36
2022/05/16 11:09:23;;;;;;;4.65;2.15;;;;;;;25.00;53.53;101479.66;5011203;28;20076;-36
2022/05/16 11:12:12;;;;;;;4.25;2.03;;;;;;;25.12;52.99;101475.19;5011023;28;20029;-36
2022/05/16 11:14:40;;;;;;;5.28;2.10;;;;;;;24.99;52.55;101486.31;5010771;28;20144;-36
2022/05/16 11:17:13;;;;;;;5.05;2.47;;;;;;;24.96;53.15;101487.75;5010698;28;20054;-36
2022/05/16 11:19:44;;;;;;;6.38;2.75;;;;;;;24.92;53.34;101497.78;5011372;28;20364;-36
2022/05/16 11:22:12;;;;;;;4.55;2.22;;;;;;;24.65;54.47;101493.16;5010860;28;20058;-36
2022/05/16 11:24:49;;;;;;;6.45;2.33;;;;;;;24.32;58.31;101509.03;5010583;28;20037;-36
2022/05/16 11:27:57;;;;;;;6.88;2.90;;;;;;;24.08;59.62;101512.00;5011246;28;20045;-36
2022/05/16 11:30:31;;;;;;;;;;;;;;;23.99;60.09;101513.81;4915738;29;20072;-37
2022/05/16 11:33:02;;;;;;;7.90;3.95;;;;;;;23.35;63.84;101505.25;4918306;29;20015;-36
2022/05/16 11:35:41;;;;;;;7.05;3.08;;;;;;;23.18;64.07;101511.34;4917951;29;20204;-37
2022/05/16 11:38:07;;;;;;;6.15;3.17;;;;;;;22.99;65.07;101521.56;4918327;29;20035;-36
2022/05/16 11:40:36;;;;;;;9.82;3.40;;;;;;;22.90;65.06;101515.06;4951742;28;20117;-37
2022/05/16 11:43:24;;;;;;;5.28;2.95;;;;;;;22.83;66.25;101526.41;4975693;28;20054;-36
2022/05/16 11:46:07;;;;;;;9.30;3.65;;;;;;;22.63;65.06;101516.47;4975090;28;20035;-37
2022/05/16 11:48:49;;;;;;;6.82;3.63;;;;;;;22.47;66.72;101517.81;4975041;28;20142;-37
2022/05/16 11:51:31;;;;;;;8.50;4.13;;;;;;;22.53;67.41;101528.47;4975360;28;20045;-36
2022/05/16 11:54:01;;;;;;;8.23;4.25;;;;;;;22.45;69.42;101525.53;4975612;28;20507;-37
2022/05/16 12:02:26;;;;;;;8.20;4.07;;;;;;;22.81;69.86;101523.16;4975197;28;20077;-36
2022/05/16 12:05:04;;;;;;;7.68;4.45;;;;;;;23.10;69.48;101537.66;4975334;28;20038;-36
2022/05/16 12:07:38;;;;;;;9.38;4.57;;;;;;;23.12;68.16;101531.81;5030946;28;20051;-36
2022/05/16 12:10:10;;;;;;;7.07;4.38;;;;;;;23.05;68.72;101534.16;5056509;28;20079;-37
2022/05/16 12:12:43;;;;;;;8.05;5.03;;;;;;;23.13;68.48;101538.97;5055756;28;20021;-37
2022/05/16 12:15:10;;;;;;;8.68;4.43;;;;;;;23.13;69.19;101533.44;5055262;28;20033;-37
2022/05/16 12:17:35;;;;;;;6.57;4.78;;;;;;;23.15;68.08;101552.47;5055826;28;20052;-37
2022/05/16 12:20:09;;;;;;;8.35;5.30;;;;;;;23.07;67.47;101553.97;5055259;28;20108;-37
2022/05/16 12:22:34;;;;;;;6.45;5.13;;;;;;;23.01;67.99;101552.41;5055633;28;20028;-38